Terminal Aerodrome Forecast
Issued by NWS

Home | Current Version | Previous Version | Text Only | Print | Product List | Glossary On
Versions: 1 2 3 4 5 6 7 8 9 10 11 12 13
000
FTUS42 TJSJ 230500
TAFJMZ
TAF
TJMZ 230530Z 2306/2406 07005KT P6SM FEW030
     FM231530 25010KT P6SM SCT025 BKN040
     FM232330 08005KT P6SM FEW030
      AMD NOT SKED TIL 231200=

USA.gov is the U.S. government's official web portal to all federal, state and local government web resources and services.